Time;durP1;ratioP1;P1;durP2;ratioP2;P2;SDS_P1;SDS_P2;PMS_P1;PMS_P2;Temp;Humidity;BMP_temperature;BMP_pressure;BME280_temperature;BME280_humidity;BME280_pressure;Samples;Min_cycle;Max_cycle;Signal;HPM_P1;HPM_P2
2023/06/28 00:01:22;;;;;;;7.20;2.60;;;;;;;12.81;100.00;100173.00;221453;1264;140614;-83
2023/06/28 00:06:23;;;;;;;10.50;3.20;;;;;;;12.76;100.00;100171.82;222160;1266;139016;-83
2023/06/28 00:11:25;;;;;;;7.70;2.70;;;;;;;12.72;100.00;100166.95;221652;1264;140387;-84
2023/06/28 00:16:26;;;;;;;5.30;2.70;;;;;;;12.67;100.00;100155.12;222055;1264;139001;-83
2023/06/28 00:21:27;;;;;;;5.10;2.70;;;;;;;12.64;100.00;100152.67;221461;1264;140613;-82
2023/06/28 00:26:28;;;;;;;5.80;2.60;;;;;;;12.60;100.00;100150.63;222202;1264;97891;-84
2023/06/28 00:31:28;;;;;;;9.10;2.80;;;;;;;12.58;100.00;100147.33;221645;1264;140333;-86
2023/06/28 00:36:31;;;;;;;5.70;2.40;;;;;;;12.55;100.00;100147.96;221770;1264;139296;-84
2023/06/28 00:41:31;;;;;;;8.10;3.40;;;;;;;12.54;100.00;100143.00;221297;1264;140872;-84
2023/06/28 00:46:34;;;;;;;7.10;2.90;;;;;;;12.52;100.00;100140.23;222151;1264;139418;-87
2023/06/28 00:51:35;;;;;;;5.30;2.60;;;;;;;12.50;100.00;100141.02;221709;1264;140665;-83
2023/06/28 00:56:37;;;;;;;7.70;3.00;;;;;;;12.49;100.00;100137.24;222179;1264;139086;-85
2023/06/28 01:01:37;;;;;;;8.10;2.40;;;;;;;12.47;100.00;100136.69;221304;1264;140691;-86
2023/06/28 01:06:38;;;;;;;6.30;2.50;;;;;;;12.45;100.00;100134.56;221882;1264;139446;-83
2023/06/28 01:11:39;;;;;;;8.90;3.40;;;;;;;12.44;100.00;100137.23;221750;1267;140072;-87
2023/06/28 01:16:40;;;;;;;7.50;3.00;;;;;;;12.42;100.00;100131.73;222021;1267;139251;-87
2023/06/28 01:21:44;;;;;;;9.20;3.20;;;;;;;12.36;100.00;100128.98;221380;1267;141945;-83
2023/06/28 01:26:47;;;;;;;6.40;3.00;;;;;;;12.32;100.00;100126.05;221855;1267;138977;-85
2023/06/28 01:31:52;;;;;;;9.80;3.40;;;;;;;12.29;100.00;100124.89;221613;1264;140692;-83
2023/06/28 01:36:56;;;;;;;8.10;3.50;;;;;;;12.25;100.00;100126.77;221848;1267;139020;-83
2023/06/28 01:41:59;;;;;;;4.40;2.40;;;;;;;12.20;100.00;100129.23;221698;1264;140826;-82
2023/06/28 01:46:59;;;;;;;5.80;2.70;;;;;;;12.16;100.00;100127.80;221840;1264;139195;-83
2023/06/28 01:52:00;;;;;;;7.50;3.20;;;;;;;12.11;100.00;100128.27;221346;1264;140271;-84
2023/06/28 01:57:00;;;;;;;7.60;3.10;;;;;;;12.06;100.00;100126.15;222161;1264;139886;-83
2023/06/28 02:02:01;;;;;;;9.60;3.40;;;;;;;12.02;100.00;100125.75;221794;1263;142241;-83
2023/06/28 02:07:01;;;;;;;7.80;3.50;;;;;;;11.99;100.00;100129.38;221969;1267;137934;-84
2023/06/28 02:12:01;;;;;;;8.00;2.90;;;;;;;11.97;100.00;100127.01;221457;1264;140437;-84
2023/06/28 02:17:02;;;;;;;9.80;3.20;;;;;;;11.94;100.00;100126.31;221880;1264;139226;-83
2023/06/28 02:22:02;;;;;;;5.80;2.60;;;;;;;11.90;100.00;100129.21;221571;1264;142344;-83
2023/06/28 02:27:04;;;;;;;8.00;2.80;;;;;;;11.86;100.00;100132.90;222056;1264;139811;-83
2023/06/28 02:32:04;;;;;;;9.60;3.10;;;;;;;11.84;100.00;100132.67;221561;1264;141037;-84
2023/06/28 02:37:05;;;;;;;7.90;2.30;;;;;;;11.80;100.00;100136.61;221968;1264;140144;-84
2023/06/28 02:42:06;;;;;;;9.70;2.90;;;;;;;11.77;100.00;100144.79;221277;1264;141615;-85
2023/06/28 02:47:06;;;;;;;6.60;3.10;;;;;;;11.75;100.00;100146.52;221806;1264;139074;-84
2023/06/28 02:52:07;;;;;;;7.00;2.60;;;;;;;11.72;100.00;100134.45;221578;1264;142517;-83
2023/06/28 02:57:09;;;;;;;8.60;2.90;;;;;;;11.69;100.00;100127.14;222255;1264;139236;-84
2023/06/28 03:02:09;;;;;;;8.70;3.30;;;;;;;11.69;100.00;100117.54;221376;1264;142071;-83
2023/06/28 03:07:14;;;;;;;10.60;3.40;;;;;;;11.71;100.00;100106.42;222032;1264;139286;-82
2023/06/28 03:12:14;;;;;;;9.40;3.20;;;;;;;11.77;100.00;100114.55;221688;1264;140715;-85
2023/06/28 03:17:16;;;;;;;10.90;3.40;;;;;;;11.83;100.00;100118.49;221886;1264;139387;-88
2023/06/28 03:22:18;;;;;;;11.10;3.10;;;;;;;11.88;100.00;100119.13;221210;1264;142115;-86
2023/06/28 03:27:19;;;;;;;6.70;2.90;;;;;;;11.96;100.00;100124.58;222043;1264;139327;-83
2023/06/28 03:32:19;;;;;;;8.40;4.00;;;;;;;12.06;100.00;100127.25;221466;1264;140323;-82
2023/06/28 03:37:20;;;;;;;9.20;3.00;;;;;;;12.17;100.00;100121.98;222046;1264;138867;-83
2023/06/28 03:42:21;;;;;;;10.90;3.10;;;;;;;12.28;100.00;100120.77;221716;1264;140503;-83
2023/06/28 03:47:21;;;;;;;7.10;2.80;;;;;;;12.38;100.00;100120.38;222301;1264;139437;-83
2023/06/28 03:52:23;;;;;;;8.00;3.20;;;;;;;12.47;100.00;100116.27;221368;1264;140565;-85
2023/06/28 03:57:23;;;;;;;10.40;2.80;;;;;;;12.56;100.00;100115.06;222125;1264;139157;-85
2023/06/28 04:02:26;;;;;;;8.60;2.80;;;;;;;12.64;100.00;100119.15;221587;1264;141173;-83
2023/06/28 04:07:26;;;;;;;6.10;2.60;;;;;;;12.72;100.00;100121.59;221959;1264;138828;-84
2023/06/28 04:12:27;;;;;;;5.30;2.50;;;;;;;12.80;100.00;100117.05;221540;1264;140601;-84
2023/06/28 04:17:27;;;;;;;6.60;2.60;;;;;;;12.86;100.00;100123.20;221778;1267;139151;-84
2023/06/28 04:22:28;;;;;;;8.30;2.80;;;;;;;12.91;100.00;100120.81;221285;1263;140911;-86
2023/06/28 04:27:28;;;;;;;6.60;2.80;;;;;;;12.97;100.00;100124.83;221927;1267;139288;-85
2023/06/28 04:32:29;;;;;;;9.30;3.50;;;;;;;13.04;100.00;100119.52;221573;1267;143118;-83
2023/06/28 04:37:32;;;;;;;6.70;3.00;;;;;;;13.09;100.00;100115.48;222203;1267;138919;-85
2023/06/28 04:42:34;;;;;;;7.30;2.90;;;;;;;13.15;100.00;100114.91;221548;1267;140469;-85
2023/06/28 04:47:35;;;;;;;6.60;3.00;;;;;;;13.20;100.00;100113.77;222194;1264;139063;-85
2023/06/28 04:52:36;;;;;;;8.30;2.70;;;;;;;13.29;100.00;100116.02;221376;1264;140431;-85
2023/06/28 04:57:36;;;;;;;11.40;3.60;;;;;;;13.35;100.00;100121.45;222208;1264;139132;-85
2023/06/28 05:02:37;;;;;;;8.90;3.30;;;;;;;13.44;100.00;100118.17;221494;1264;140712;-85
2023/06/28 05:07:38;;;;;;;11.80;3.60;;;;;;;13.53;100.00;100119.06;221871;1264;97950;-83
2023/06/28 05:12:39;;;;;;;7.50;3.10;;;;;;;13.64;100.00;100117.89;221617;1265;140449;-84
2023/06/28 05:17:39;;;;;;;7.60;3.00;;;;;;;13.76;100.00;100115.59;221913;1264;139136;-83
2023/06/28 05:22:49;;;;;;;8.60;3.30;;;;;;;13.91;100.00;100111.69;221443;1264;142418;-85
2023/06/28 05:27:56;;;;;;;8.00;3.00;;;;;;;14.07;100.00;100111.33;222198;1264;139066;-85
2023/06/28 05:32:58;;;;;;;8.40;3.00;;;;;;;14.36;100.00;100113.08;221514;1264;140830;-82
2023/06/28 05:38:00;;;;;;;9.80;3.70;;;;;;;14.73;100.00;100110.10;222346;1263;98439;-84
2023/06/28 05:43:01;;;;;;;12.60;3.30;;;;;;;15.15;100.00;100113.87;221671;1264;141430;-87
2023/06/28 05:48:02;;;;;;;6.00;2.30;;;;;;;15.50;100.00;100116.06;221997;1267;139317;-83
2023/06/28 05:53:04;;;;;;;11.00;2.80;;;;;;;15.80;100.00;100113.96;221346;1263;140301;-85
2023/06/28 05:58:05;;;;;;;8.00;2.60;;;;;;;16.03;100.00;100111.45;222044;1267;139314;-89
2023/06/28 06:03:06;;;;;;;7.40;2.40;;;;;;;16.26;99.97;100112.17;221730;1264;140727;-84
2023/06/28 06:08:06;;;;;;;10.70;2.60;;;;;;;16.53;99.88;100107.85;222361;1264;98353;-85
2023/06/28 06:13:07;;;;;;;6.80;2.90;;;;;;;16.80;98.30;100108.52;221687;1264;140420;-84
2023/06/28 06:18:08;;;;;;;7.60;2.70;;;;;;;16.88;96.89;100105.74;221886;1267;139147;-85
2023/06/28 06:23:11;;;;;;;12.40;3.10;;;;;;;16.91;96.02;100108.54;221430;1264;140837;-86
2023/06/28 06:28:12;;;;;;;10.00;3.10;;;;;;;16.93;96.28;100120.48;222044;1264;138107;-88
2023/06/28 06:33:13;;;;;;;6.70;2.50;;;;;;;16.78;96.10;100119.84;221442;1264;142323;-87
2023/06/28 06:38:15;;;;;;;10.30;3.10;;;;;;;16.72;97.09;100121.23;221689;1267;455396;-87
2023/06/28 06:43:15;;;;;;;12.00;4.00;;;;;;;16.61;97.34;100117.77;221380;1264;141009;-86
2023/06/28 06:48:16;;;;;;;7.80;3.30;;;;;;;16.44;97.10;100123.15;222182;1264;138965;-86
2023/06/28 06:53:26;;;;;;;13.10;3.10;;;;;;;16.17;98.02;100122.96;221326;1264;139588;-88
2023/06/28 06:58:28;;;;;;;10.00;3.70;;;;;;;16.00;98.47;100118.70;222008;1267;139057;-87
2023/06/28 07:03:28;;;;;;;10.40;3.60;;;;;;;15.90;99.28;100119.36;221438;1266;140113;-85
2023/06/28 07:08:46;;;;;;;13.60;3.60;;;;;;;15.67;99.87;100117.08;221966;1267;98000;-89
2023/06/28 07:13:47;;;;;;;9.20;3.50;;;;;;;15.45;100.00;100127.86;221850;1264;97941;-88
2023/06/28 07:18:50;;;;;;;11.60;4.20;;;;;;;15.27;100.00;100124.02;221957;1264;138766;-91
2023/06/28 07:24:00;;;;;;;15.40;5.70;;;;;;;15.09;100.00;100117.83;221581;1264;139333;-88
2023/06/28 07:29:07;;;;;;;11.30;4.30;;;;;;;14.95;100.00;100122.66;221420;1267;140520;-88
2023/06/28 07:34:14;;;;;;;10.20;4.40;;;;;;;14.84;100.00;100119.55;221913;1267;139374;-91
2023/06/28 07:39:15;;;;;;;8.60;4.30;;;;;;;14.72;100.00;100122.61;221388;1264;141262;-91
2023/06/28 07:44:16;;;;;;;9.10;4.80;;;;;;;14.59;100.00;100124.89;221924;1264;98032;-88
2023/06/28 07:49:16;;;;;;;7.50;4.30;;;;;;;14.54;100.00;100132.38;221361;1266;140438;-86
2023/06/28 07:54:17;;;;;;;13.30;4.90;;;;;;;14.46;100.00;100137.73;221989;1264;138926;-88
2023/06/28 07:59:21;;;;;;;10.20;4.90;;;;;;;14.44;100.00;100140.54;221446;1264;140119;-90
2023/06/28 08:04:23;;;;;;;11.40;5.40;;;;;;;14.44;100.00;100140.08;221903;1267;139422;-89
2023/06/28 08:09:25;;;;;;;9.90;5.10;;;;;;;14.42;100.00;100142.84;221390;1267;140036;-88
2023/06/28 08:14:28;;;;;;;9.70;4.40;;;;;;;14.36;100.00;100146.79;222147;1263;97963;-85
2023/06/28 08:19:28;;;;;;;10.30;4.70;;;;;;;14.35;100.00;100144.56;221388;1266;141275;-86
2023/06/28 08:24:30;;;;;;;9.90;4.80;;;;;;;14.38;100.00;100148.11;221788;1264;140657;-88
2023/06/28 08:29:30;;;;;;;9.50;4.70;;;;;;;14.41;100.00;100144.20;221394;1264;140513;-83
2023/06/28 08:34:31;;;;;;;9.50;5.20;;;;;;;14.39;100.00;100142.48;222235;1265;140217;-85
2023/06/28 08:39:32;;;;;;;11.70;5.40;;;;;;;14.36;100.00;100142.98;221318;1264;140985;-83
2023/06/28 08:44:33;;;;;;;11.70;4.80;;;;;;;14.32;100.00;100143.02;222014;1264;98561;-83
2023/06/28 08:49:36;;;;;;;14.70;5.70;;;;;;;14.34;100.00;100143.47;221620;1267;141347;-83
2023/06/28 08:54:37;;;;;;;11.00;5.70;;;;;;;14.37;100.00;100145.91;221977;1264;139394;-85
2023/06/28 08:59:39;;;;;;;12.60;6.90;;;;;;;14.33;100.00;100144.90;221359;1264;140560;-85
2023/06/28 09:04:41;;;;;;;12.60;7.50;;;;;;;14.28;100.00;100140.67;221957;1265;139276;-86
2023/06/28 09:09:46;;;;;;;15.80;8.10;;;;;;;14.30;100.00;100145.02;221459;1264;141270;-88
2023/06/28 09:14:49;;;;;;;17.30;8.50;;;;;;;14.31;100.00;100146.90;221892;1266;139227;-91
2023/06/28 09:19:50;;;;;;;20.50;9.70;;;;;;;14.33;100.00;100141.19;221775;1263;140885;-89
2023/06/28 09:24:50;;;;;;;17.90;10.40;;;;;;;14.41;100.00;100139.29;221996;1266;139282;-86
2023/06/28 09:30:00;;;;;;;15.10;10.40;;;;;;;14.49;100.00;100141.84;221665;1265;141114;-87
2023/06/28 09:35:01;;;;;;;18.70;10.00;;;;;;;14.62;100.00;100142.42;221877;1266;139555;-89
2023/06/28 09:40:03;;;;;;;15.80;9.80;;;;;;;14.75;100.00;100143.95;221398;1264;141682;-91
2023/06/28 09:45:04;;;;;;;16.90;10.30;;;;;;;14.90;100.00;100139.43;222165;1264;139801;-88
2023/06/28 09:50:05;;;;;;;18.00;9.40;;;;;;;15.00;100.00;100142.80;221744;1264;142461;-87
2023/06/28 09:55:07;;;;;;;20.40;9.10;;;;;;;15.09;100.00;100147.38;221969;1264;139162;-85
2023/06/28 10:00:10;;;;;;;15.20;8.80;;;;;;;15.18;100.00;100149.23;221373;1267;141248;-87
2023/06/28 10:05:11;;;;;;;13.30;8.70;;;;;;;15.22;100.00;100148.65;221970;1267;139202;-88
2023/06/28 10:10:12;;;;;;;14.80;8.30;;;;;;;15.26;100.00;100150.40;221324;1266;141015;-87
2023/06/28 10:15:17;;;;;;;18.40;8.00;;;;;;;15.29;100.00;100158.53;221850;1263;139596;-86
2023/06/28 10:20:44;;;;;;;13.20;8.00;;;;;;;15.33;100.00;100152.96;221511;1264;141309;-92
2023/06/28 10:25:45;;;;;;;15.30;7.50;;;;;;;15.36;100.00;100154.52;221977;1264;110268;-88
2023/06/28 10:30:47;;;;;;;16.00;8.20;;;;;;;15.38;100.00;100159.55;221404;1266;141027;-91
2023/06/28 10:35:50;;;;;;;14.60;7.60;;;;;;;15.39;100.00;100154.09;221948;1265;139428;-91
2023/06/28 10:40:52;;;;;;;16.10;7.50;;;;;;;15.39;100.00;100161.93;221339;1267;140918;-89
2023/06/28 10:45:55;;;;;;;16.50;8.00;;;;;;;15.42;100.00;100157.45;221952;1266;139182;-88
2023/06/28 10:51:00;;;;;;;22.50;10.50;;;;;;;15.45;100.00;100158.35;221327;1266;140712;-87
2023/06/28 10:56:03;;;;;;;18.10;7.50;;;;;;;15.50;100.00;100152.11;222050;1266;97970;-89
2023/06/28 11:01:12;;;;;;;13.80;7.60;;;;;;;15.54;100.00;100163.23;221711;1266;141979;-86
2023/06/28 11:06:14;;;;;;;13.70;6.70;;;;;;;15.56;100.00;100165.11;221929;1264;139123;-87
2023/06/28 11:11:33;;;;;;;13.50;6.50;;;;;;;15.57;100.00;100165.58;221129;1266;145591;-89
2023/06/28 11:16:41;;;;;;;12.30;7.00;;;;;;;15.60;100.00;100169.48;222159;1267;139748;-88
2023/06/28 11:21:41;;;;;;;16.90;7.00;;;;;;;15.63;100.00;100169.36;221604;1266;143659;-86
2023/06/28 11:26:42;;;;;;;11.50;6.60;;;;;;;15.66;100.00;100175.35;222288;1264;97937;-85
2023/06/28 11:31:56;;;;;;;11.20;6.30;;;;;;;15.66;100.00;100174.41;221628;1267;140339;-85
2023/06/28 11:36:57;;;;;;;13.80;6.70;;;;;;;15.66;100.00;100179.55;221924;1268;139025;-81
2023/06/28 11:42:03;;;;;;;13.30;7.50;;;;;;;15.67;100.00;100174.47;221433;1266;140183;-83
2023/06/28 11:47:04;;;;;;;12.10;6.20;;;;;;;15.65;100.00;100178.22;221822;1264;139278;-85
2023/06/28 11:52:08;;;;;;;14.10;6.80;;;;;;;15.63;100.00;100174.36;221448;1266;140599;-86
2023/06/28 11:57:09;;;;;;;12.90;7.10;;;;;;;15.64;100.00;100173.88;221881;1267;139377;-86
2023/06/28 12:02:11;;;;;;;13.50;7.50;;;;;;;15.63;100.00;100173.66;221772;1267;139806;-85
2023/06/28 12:07:13;;;;;;;17.30;8.10;;;;;;;15.60;100.00;100177.73;221963;1266;139079;-87
2023/06/28 12:12:14;;;;;;;17.20;9.00;;;;;;;15.61;100.00;100179.15;221419;1268;140733;-85
2023/06/28 12:17:17;;;;;;;13.90;7.20;;;;;;;15.58;100.00;100181.73;221920;1264;139216;-85
2023/06/28 12:22:17;;;;;;;14.30;8.40;;;;;;;15.58;100.00;100178.80;221460;1264;140700;-84
2023/06/28 12:27:20;;;;;;;14.20;8.60;;;;;;;15.54;100.00;100179.95;221934;1264;139420;-85
2023/06/28 12:32:24;;;;;;;17.60;9.90;;;;;;;15.56;100.00;100177.86;221556;1265;140702;-84
2023/06/28 12:37:35;;;;;;;17.20;9.40;;;;;;;15.57;100.00;100177.95;221989;1264;139069;-85
2023/06/28 12:42:35;;;;;;;18.70;9.00;;;;;;;15.62;100.00;100189.52;221332;1266;140882;-85
2023/06/28 12:47:36;;;;;;;17.10;9.90;;;;;;;15.70;100.00;100190.54;221957;1266;139312;-83
2023/06/28 12:52:38;;;;;;;15.60;9.20;;;;;;;15.78;100.00;100197.95;221437;1263;140753;-86
2023/06/28 12:57:43;;;;;;;17.60;10.10;;;;;;;15.86;100.00;100205.13;221939;1267;139267;-83
2023/06/28 13:02:46;;;;;;;16.90;9.00;;;;;;;15.93;100.00;100208.44;221668;1267;141715;-82
2023/06/28 13:07:48;;;;;;;17.40;9.50;;;;;;;15.98;100.00;100211.38;222038;1264;97829;-82
2023/06/28 13:12:48;;;;;;;19.40;9.80;;;;;;;16.03;100.00;100214.00;221395;1265;139847;-81
2023/06/28 13:17:49;;;;;;;14.50;8.60;;;;;;;16.08;100.00;100212.98;222000;1264;139557;-83
2023/06/28 13:22:50;;;;;;;16.00;9.40;;;;;;;16.12;100.00;100214.19;221361;1264;140550;-85
2023/06/28 13:27:50;;;;;;;12.80;9.00;;;;;;;16.16;100.00;100215.31;222039;1266;139380;-85
2023/06/28 13:32:52;;;;;;;16.70;9.30;;;;;;;16.22;100.00;100223.80;221474;1266;140251;-85
2023/06/28 13:37:53;;;;;;;13.60;9.40;;;;;;;16.31;100.00;100226.60;221972;1266;97924;-84
2023/06/28 13:42:53;;;;;;;17.30;9.10;;;;;;;16.41;100.00;100227.88;221410;1267;140693;-82
2023/06/28 13:47:54;;;;;;;14.40;9.40;;;;;;;16.52;100.00;100234.14;221956;1266;139209;-83
2023/06/28 13:52:54;;;;;;;20.10;9.00;;;;;;;16.60;100.00;100231.31;221431;1264;142296;-85
2023/06/28 13:57:58;;;;;;;16.30;9.30;;;;;;;16.67;100.00;100232.70;221940;1264;139269;-87
2023/06/28 14:02:58;;;;;;;14.80;8.20;;;;;;;16.73;100.00;100230.46;221337;1264;140808;-86
2023/06/28 14:07:59;;;;;;;14.40;8.00;;;;;;;16.77;100.00;100228.80;221964;1265;97864;-84
2023/06/28 14:12:59;;;;;;;14.90;8.20;;;;;;;16.81;100.00;100232.87;221342;1268;142152;-84
2023/06/28 14:18:00;;;;;;;14.70;8.00;;;;;;;16.84;100.00;100235.60;221914;1266;139436;-85
2023/06/28 14:23:00;;;;;;;16.20;8.40;;;;;;;16.86;100.00;100233.49;221414;1266;141284;-84
2023/06/28 14:28:03;;;;;;;12.10;8.30;;;;;;;16.88;100.00;100242.02;221947;1264;139211;-85
2023/06/28 14:33:03;;;;;;;17.20;8.40;;;;;;;16.91;100.00;100240.55;221419;1265;140046;-85
2023/06/28 14:38:24;;;;;;;14.90;8.70;;;;;;;16.94;100.00;100241.77;221493;1271;97864;-86
2023/06/28 14:43:27;;;;;;;15.00;9.00;;;;;;;16.96;100.00;100237.83;220853;1269;140125;-84
2023/06/28 14:48:27;;;;;;;12.30;8.70;;;;;;;17.01;100.00;100236.32;221413;1267;139041;-85
2023/06/28 14:53:27;;;;;;;13.20;8.50;;;;;;;17.04;100.00;100234.27;220807;1268;141823;-84
2023/06/28 14:58:28;;;;;;;14.70;9.80;;;;;;;17.09;100.00;100237.75;221413;1267;139220;-84
2023/06/28 15:03:28;;;;;;;15.90;9.60;;;;;;;17.13;100.00;100235.30;220790;1271;139830;-83
2023/06/28 15:08:32;;;;;;;16.70;9.20;;;;;;;17.20;100.00;100239.14;221916;1268;98203;-81
2023/06/28 15:13:32;;;;;;;15.60;10.00;;;;;;;17.26;100.00;100241.49;221295;1263;140801;-82
2023/06/28 15:18:32;;;;;;;17.30;10.00;;;;;;;17.32;100.00;100240.97;222011;1264;139452;-82
2023/06/28 15:23:33;;;;;;;16.50;10.00;;;;;;;17.41;100.00;100247.20;221431;1266;141103;-86
2023/06/28 15:28:33;;;;;;;15.70;10.90;;;;;;;17.51;100.00;100244.91;221899;1264;139560;-84
2023/06/28 15:33:34;;;;;;;14.70;9.10;;;;;;;17.62;100.00;100247.48;221346;1268;141923;-84
2023/06/28 15:38:35;;;;;;;15.60;8.80;;;;;;;17.68;100.00;100244.50;221946;1265;97845;-87
2023/06/28 15:43:35;;;;;;;15.20;8.80;;;;;;;17.71;100.00;100245.31;221333;1268;140632;-85
2023/06/28 15:48:36;;;;;;;18.30;7.80;;;;;;;17.74;100.00;100248.27;221887;1268;139118;-87
2023/06/28 15:53:37;;;;;;;14.10;7.50;;;;;;;17.75;100.00;100243.64;221458;1268;142486;-85
2023/06/28 15:58:39;;;;;;;16.20;7.60;;;;;;;17.79;100.00;100242.05;221887;1267;139215;-88
2023/06/28 16:03:40;;;;;;;13.00;7.60;;;;;;;17.79;100.00;100248.48;221449;1268;140437;-87
2023/06/28 16:08:41;;;;;;;13.80;7.40;;;;;;;17.79;100.00;100244.27;221958;1267;97930;-88
2023/06/28 16:13:44;;;;;;;15.50;8.00;;;;;;;17.84;100.00;100241.39;221323;1268;140413;-87
2023/06/28 16:18:45;;;;;;;12.50;7.20;;;;;;;17.89;100.00;100250.75;221879;1267;139054;-86
2023/06/28 16:23:46;;;;;;;17.70;7.90;;;;;;;17.92;100.00;100254.50;221731;1266;141023;-84
2023/06/28 16:28:47;;;;;;;15.00;7.50;;;;;;;17.92;100.00;100256.95;221975;1264;139368;-84
2023/06/28 16:33:47;;;;;;;14.40;7.90;;;;;;;17.94;100.00;100258.09;221689;1266;140534;-84
2023/06/28 16:38:48;;;;;;;13.20;7.80;;;;;;;17.97;100.00;100251.03;222008;1264;98301;-84
2023/06/28 16:43:48;;;;;;;12.70;7.90;;;;;;;18.01;100.00;100258.44;221343;1267;141205;-84
2023/06/28 16:48:49;;;;;;;13.70;8.10;;;;;;;18.04;100.00;100265.36;221919;1264;139263;-84
2023/06/28 16:53:49;;;;;;;15.70;7.80;;;;;;;18.05;100.00;100273.95;221446;1268;141033;-86
2023/06/28 16:58:49;;;;;;;13.10;7.20;;;;;;;18.06;100.00;100276.69;221981;1263;139372;-84
2023/06/28 17:03:50;;;;;;;12.90;8.10;;;;;;;18.08;100.00;100278.56;221720;1267;140789;-83
2023/06/28 17:08:50;;;;;;;14.40;9.20;;;;;;;18.09;100.00;100275.98;221902;1264;140624;-86
2023/06/28 17:13:51;;;;;;;13.40;8.40;;;;;;;18.14;100.00;100272.87;221881;1264;152440;-85
2023/06/28 17:18:52;;;;;;;10.60;6.60;;;;;;;18.20;100.00;100276.31;221322;1267;141534;-87
2023/06/28 17:23:52;;;;;;;12.10;6.90;;;;;;;18.21;100.00;100279.77;222038;1264;139838;-87
2023/06/28 17:28:53;;;;;;;12.80;6.10;;;;;;;18.25;100.00;100287.09;221447;1267;141282;-87
2023/06/28 17:33:55;;;;;;;12.50;7.00;;;;;;;18.28;100.00;100285.61;221858;1264;139250;-86
2023/06/28 17:38:55;;;;;;;13.80;6.10;;;;;;;18.29;100.00;100292.41;221318;1267;145768;-85
2023/06/28 17:43:56;;;;;;;10.20;6.60;;;;;;;18.30;100.00;100299.79;221941;1264;97854;-86
2023/06/28 17:48:56;;;;;;;11.90;7.00;;;;;;;18.31;100.00;100300.34;221452;1264;145634;-86
2023/06/28 17:54:00;;;;;;;12.20;6.60;;;;;;;18.32;100.00;100297.08;222014;1264;139597;-85
2023/06/28 17:59:01;;;;;;;10.40;6.40;;;;;;;18.29;100.00;100306.10;221457;1267;140073;-84
2023/06/28 18:04:02;;;;;;;11.70;6.20;;;;;;;18.26;100.00;100301.33;222013;1267;139362;-84
2023/06/28 18:09:02;;;;;;;11.70;6.90;;;;;;;18.22;100.00;100302.21;221584;1264;140589;-85
2023/06/28 18:14:03;;;;;;;14.20;8.00;;;;;;;18.16;100.00;100307.50;222009;1264;97921;-84
2023/06/28 18:19:04;;;;;;;14.00;7.70;;;;;;;18.10;100.00;100314.49;221665;1267;141548;-85
2023/06/28 18:24:05;;;;;;;13.40;8.70;;;;;;;18.05;100.00;100319.14;221909;1267;139646;-86
2023/06/28 18:29:07;;;;;;;13.50;7.90;;;;;;;18.00;100.00;100324.73;221538;1264;140090;-87
2023/06/28 18:34:08;;;;;;;10.80;7.10;;;;;;;17.95;100.00;100328.33;221888;1267;139352;-85
2023/06/28 18:39:08;;;;;;;16.00;9.10;;;;;;;17.90;100.00;100327.48;221144;1264;260234;-86
2023/06/28 18:44:09;;;;;;;12.30;7.50;;;;;;;17.85;100.00;100328.52;221958;1264;97880;-86
2023/06/28 18:49:10;;;;;;;12.30;8.00;;;;;;;17.81;100.00;100337.38;221553;1264;140684;-85
2023/06/28 18:54:12;;;;;;;15.00;9.20;;;;;;;17.76;100.00;100347.09;221883;1263;139104;-85
2023/06/28 18:59:13;;;;;;;12.20;7.70;;;;;;;17.72;100.00;100356.55;221433;1267;141647;-85
2023/06/28 19:04:13;;;;;;;11.90;7.50;;;;;;;17.68;100.00;100363.31;221856;1264;139322;-85
2023/06/28 19:09:14;;;;;;;13.40;7.70;;;;;;;17.63;100.00;100369.45;221328;1264;141514;-86
2023/06/28 19:14:15;;;;;;;13.10;8.00;;;;;;;17.57;100.00;100377.83;222133;1264;97853;-85
2023/06/28 19:19:18;;;;;;;14.40;8.40;;;;;;;17.51;100.00;100389.79;221487;1264;141316;-85
2023/06/28 19:24:18;;;;;;;15.90;7.90;;;;;;;17.44;100.00;100398.17;221791;1264;139597;-85
2023/06/28 19:29:19;;;;;;;17.80;9.60;;;;;;;17.38;100.00;100401.52;221281;1267;140417;-85
2023/06/28 19:34:23;;;;;;;17.50;8.30;;;;;;;17.32;100.00;100405.17;222010;1264;139309;-85
2023/06/28 19:39:24;;;;;;;13.80;7.50;;;;;;;17.25;100.00;100419.13;221516;1267;140628;-85
2023/06/28 19:44:25;;;;;;;15.70;8.30;;;;;;;17.18;100.00;100418.36;222026;1267;97926;-88
2023/06/28 19:49:26;;;;;;;14.50;8.80;;;;;;;17.12;100.00;100420.69;221493;1267;140453;-86
2023/06/28 19:54:28;;;;;;;14.10;8.60;;;;;;;17.04;100.00;100424.39;222053;1267;139044;-88
2023/06/28 19:59:28;;;;;;;14.10;9.20;;;;;;;16.97;100.00;100428.07;221363;1267;140026;-88
2023/06/28 20:04:47;;;;;;;14.20;9.50;;;;;;;16.90;100.00;100425.00;221871;1264;139214;-88
2023/06/28 20:09:48;;;;;;;12.40;8.50;;;;;;;16.84;100.00;100430.39;221707;1264;140181;-85
2023/06/28 20:14:49;;;;;;;17.10;9.00;;;;;;;16.77;100.00;100433.13;221920;1264;97924;-87
2023/06/28 20:19:49;;;;;;;13.20;8.20;;;;;;;16.66;100.00;100430.17;221254;1264;140805;-86
2023/06/28 20:24:50;;;;;;;14.00;8.50;;;;;;;16.61;100.00;100434.05;221917;1264;139369;-88
2023/06/28 20:29:51;;;;;;;14.90;10.00;;;;;;;16.53;100.00;100438.38;221508;1264;141104;-85
2023/06/28 20:34:54;;;;;;;13.90;8.50;;;;;;;16.46;100.00;100447.83;222351;1264;139383;-85
2023/06/28 20:39:55;;;;;;;18.60;8.70;;;;;;;16.40;100.00;100452.34;221329;1267;141027;-86
2023/06/28 20:44:56;;;;;;;16.60;10.30;;;;;;;16.34;100.00;100456.12;221820;1264;139182;-85
2023/06/28 20:49:56;;;;;;;14.80;9.50;;;;;;;16.29;100.00;100460.23;221348;1267;141247;-85
2023/06/28 20:54:58;;;;;;;18.80;9.60;;;;;;;16.24;100.00;100460.43;222056;1264;139287;-85
2023/06/28 21:00:01;;;;;;;15.60;9.90;;;;;;;16.20;100.00;100463.74;221498;1264;141464;-84
2023/06/28 21:05:02;;;;;;;16.40;10.00;;;;;;;16.17;100.00;100461.15;222251;1264;139182;-84
2023/06/28 21:10:07;;;;;;;17.70;10.20;;;;;;;16.13;100.00;100463.19;221567;1264;140743;-86
2023/06/28 21:15:09;;;;;;;15.20;10.20;;;;;;;16.08;100.00;100466.41;222124;1267;139890;-86
2023/06/28 21:20:28;;;;;;;19.60;10.90;;;;;;;16.04;100.00;100473.52;221483;1266;141221;-84
2023/06/28 21:25:30;;;;;;;15.60;9.60;;;;;;;15.98;100.00;100473.25;222003;1264;139268;-86
2023/06/28 21:30:51;;;;;;;16.30;10.50;;;;;;;15.94;100.00;100479.41;221496;1264;141493;-86
2023/06/28 21:35:52;;;;;;;14.60;10.80;;;;;;;15.91;100.00;100486.17;221901;1264;139660;-85
2023/06/28 21:40:56;;;;;;;20.50;11.40;;;;;;;15.87;100.00;100490.66;221496;1264;142245;-86
2023/06/28 21:46:03;;;;;;;16.80;11.70;;;;;;;15.84;100.00;100492.50;221900;1264;139558;-85
2023/06/28 23:12:21;;;;;;;15.90;10.60;;;;;;;15.38;100.00;100501.14;222125;1263;139735;-86
2023/06/28 23:17:22;;;;;;;15.70;10.90;;;;;;;15.30;100.00;100502.58;222638;1262;138436;-88
2023/06/28 23:22:27;;;;;;;19.80;11.30;;;;;;;15.23;100.00;100497.73;221808;1263;141432;-88
2023/06/28 23:27:29;;;;;;;13.80;9.60;;;;;;;15.13;100.00;100496.99;222225;1263;104351;-86
2023/06/28 23:32:29;;;;;;;16.10;10.30;;;;;;;15.06;100.00;100498.55;221954;1262;139181;-87
2023/06/28 23:37:30;;;;;;;14.60;9.10;;;;;;;15.00;100.00;100500.24;222511;1264;138589;-87
2023/06/28 23:42:31;;;;;;;13.10;8.80;;;;;;;14.94;100.00;100501.63;221988;1263;140333;-88
2023/06/28 23:47:32;;;;;;;14.30;9.40;;;;;;;14.88;100.00;100498.25;222405;1264;138615;-87